createdAt,value
2018-10-17T00:00:09.598Z,74.67
2018-10-17T00:02:38.044Z,69.63
2018-10-17T00:05:07.341Z,69.73
2018-10-17T00:07:35.730Z,71.53
2018-10-17T00:10:04.516Z,75.23
2018-10-17T00:12:32.920Z,66.73
2018-10-17T00:15:01.358Z,71.10
2018-10-17T00:17:29.802Z,69.37
2018-10-17T00:19:58.274Z,69.30
2018-10-17T00:22:26.701Z,66.00
2018-10-17T00:24:55.129Z,68.97
2018-10-17T00:27:23.557Z,63.47
2018-10-17T00:29:51.990Z,65.23
2018-10-17T00:32:20.401Z,70.27
2018-10-17T00:34:48.852Z,68.67
2018-10-17T00:37:17.435Z,69.53
2018-10-17T00:39:45.823Z,72.37
2018-10-17T00:42:14.243Z,67.13
2018-10-17T00:44:42.666Z,69.50
2018-10-17T00:47:11.115Z,67.00
2018-10-17T00:49:39.575Z,70.73
2018-10-17T00:52:07.988Z,71.67
2018-10-17T00:54:36.416Z,70.97
2018-10-17T00:57:04.872Z,68.13
2018-10-17T00:59:33.288Z,68.03
2018-10-17T01:02:01.700Z,70.30
2018-10-17T01:04:30.153Z,66.50
2018-10-17T01:06:58.662Z,69.13
2018-10-17T01:09:27.088Z,66.90
2018-10-17T01:11:55.505Z,69.70
2018-10-17T01:14:23.931Z,73.00
2018-10-17T01:16:52.418Z,72.43
2018-10-17T01:19:20.845Z,70.47
2018-10-17T01:21:49.289Z,62.37
2018-10-17T01:24:17.729Z,70.40
2018-10-17T01:26:46.155Z,62.20
2018-10-17T01:29:14.614Z,65.77
2018-10-17T01:31:43.009Z,70.20
2018-10-17T01:34:11.438Z,69.00
2018-10-17T01:36:39.898Z,71.13
2018-10-17T01:39:09.547Z,71.17
2018-10-17T01:41:37.992Z,71.47
2018-10-17T01:44:07.251Z,71.07
2018-10-17T01:46:35.798Z,72.23
2018-10-17T01:49:04.344Z,75.43
2018-10-17T01:51:32.770Z,78.60
2018-10-17T01:54:01.216Z,71.03
2018-10-17T01:56:29.682Z,80.10
2018-10-17T01:58:58.154Z,81.17
2018-10-17T02:01:26.699Z,82.40
2018-10-17T02:03:55.121Z,86.00
2018-10-17T02:06:23.594Z,85.10
2018-10-17T02:08:51.993Z,83.83
2018-10-17T02:11:20.409Z,94.80
2018-10-17T02:13:48.833Z,95.17
2018-10-17T02:16:17.274Z,88.70
2018-10-17T02:18:45.744Z,80.37
2018-10-17T02:21:14.168Z,87.67
2018-10-17T02:23:42.577Z,89.33
2018-10-17T02:26:11.060Z,95.80
2018-10-17T02:28:39.508Z,87.77
2018-10-17T02:31:08.035Z,95.13
2018-10-17T02:33:36.392Z,95.10
2018-10-17T02:36:05.222Z,97.10
2018-10-17T02:38:33.713Z,95.67
2018-10-17T02:41:02.233Z,101.40
2018-10-17T02:43:30.627Z,95.20
2018-10-17T02:45:59.091Z,94.30
2018-10-17T02:48:27.516Z,98.30
2018-10-17T02:50:55.969Z,98.47
2018-10-17T02:53:24.429Z,95.27
2018-10-17T02:55:52.869Z,91.67
2018-10-17T02:58:21.293Z,91.97
2018-10-17T03:00:49.737Z,89.90
2018-10-17T03:03:18.210Z,88.50
2018-10-17T03:05:46.656Z,93.20
2018-10-17T03:08:15.072Z,88.90
2018-10-17T03:10:43.547Z,95.03
2018-10-17T03:13:12.028Z,93.33
2018-10-17T03:15:40.417Z,101.83
2018-10-17T03:18:08.885Z,91.53
2018-10-17T03:20:37.414Z,97.20
2018-10-17T03:23:06.445Z,94.03
2018-10-17T03:25:34.837Z,91.10
2018-10-17T03:28:03.320Z,94.17
2018-10-17T03:30:31.758Z,99.57
2018-10-17T03:33:00.183Z,100.33
2018-10-17T03:35:28.618Z,92.37
2018-10-17T03:37:57.067Z,98.87
2018-10-17T03:40:25.510Z,94.13
2018-10-17T03:42:53.966Z,95.87
2018-10-17T03:45:22.407Z,99.40
2018-10-17T03:47:50.884Z,95.23
2018-10-17T03:50:19.331Z,98.87
2018-10-17T03:52:47.762Z,111.00
2018-10-17T03:55:16.385Z,91.03
2018-10-17T03:57:44.741Z,88.70
2018-10-17T04:00:13.229Z,98.07
2018-10-17T04:02:41.660Z,100.70
2018-10-17T04:05:10.154Z,101.67
2018-10-17T04:07:38.547Z,95.27
2018-10-17T04:10:07.063Z,96.57
2018-10-17T04:12:35.503Z,90.93
2018-10-17T04:15:04.002Z,95.03
2018-10-17T04:17:32.427Z,96.30
2018-10-17T04:20:00.870Z,104.27
2018-10-17T04:22:29.358Z,93.40
2018-10-17T04:24:57.790Z,96.57
2018-10-17T04:27:26.256Z,103.10
2018-10-17T04:29:54.676Z,94.10
2018-10-17T04:32:23.126Z,96.83
2018-10-17T04:34:51.594Z,100.17
2018-10-17T04:37:19.991Z,95.57
2018-10-17T04:39:48.432Z,92.20
2018-10-17T04:42:16.855Z,84.17
2018-10-17T04:44:45.336Z,84.77
2018-10-17T04:47:13.876Z,89.43
2018-10-17T04:49:42.282Z,89.20
2018-10-17T04:52:10.699Z,85.17
2018-10-17T04:54:39.181Z,80.07
2018-10-17T04:57:07.613Z,85.27
2018-10-17T04:59:36.079Z,85.93
2018-10-17T05:02:04.612Z,88.23
2018-10-17T05:04:33.125Z,91.37
2018-10-17T05:07:01.566Z,84.10
2018-10-17T05:09:30.012Z,94.43
2018-10-17T05:11:58.716Z,85.50
2018-10-17T05:14:27.155Z,75.83
2018-10-17T05:16:55.613Z,76.33
2018-10-17T05:19:24.069Z,86.60
2018-10-17T05:21:52.512Z,78.67
2018-10-17T05:24:20.996Z,78.73
2018-10-17T05:26:49.517Z,74.63
2018-10-17T05:29:18.027Z,84.90
2018-10-17T05:31:46.469Z,70.40
2018-10-17T05:34:14.889Z,69.30
2018-10-17T05:36:43.337Z,68.13
2018-10-17T05:39:11.866Z,71.23
2018-10-17T05:41:40.295Z,64.90
2018-10-17T05:44:08.738Z,63.97
2018-10-17T05:46:37.195Z,60.07
2018-10-17T05:49:06.303Z,70.43
2018-10-17T05:51:34.747Z,62.93
2018-10-17T05:54:03.206Z,54.77
2018-10-17T05:56:31.673Z,64.83
2018-10-17T05:59:00.163Z,69.93
2018-10-17T06:01:28.640Z,62.43
2018-10-17T06:04:22.194Z,62.33
2018-10-17T06:06:50.756Z,58.43
2018-10-17T06:09:19.182Z,60.00
2018-10-17T06:11:47.660Z,61.00
2018-10-17T06:14:17.254Z,58.27
2018-10-17T06:16:46.403Z,66.73
2018-10-17T06:19:15.023Z,70.03
2018-10-17T06:21:43.384Z,69.30
2018-10-17T06:24:11.848Z,69.63
2018-10-17T06:26:40.303Z,63.93
2018-10-17T06:29:08.843Z,64.10
2018-10-17T06:31:37.385Z,63.30
2018-10-17T06:34:06.095Z,73.33
2018-10-17T06:36:34.552Z,76.13
2018-10-17T06:39:03.162Z,80.43
2018-10-17T06:41:31.639Z,103.23
2018-10-17T06:44:00.149Z,90.73
2018-10-17T06:46:28.832Z,108.93
2018-10-17T06:48:57.290Z,152.90
2018-10-17T06:51:25.769Z,121.90
2018-10-17T06:53:54.244Z,107.30
2018-10-17T06:56:22.700Z,86.27
2018-10-17T06:58:51.153Z,80.17
2018-10-17T07:01:19.612Z,79.80
2018-10-17T07:03:48.053Z,79.27
2018-10-17T07:06:16.502Z,72.13
2018-10-17T07:08:45.045Z,73.47
2018-10-17T07:11:13.601Z,71.43
2018-10-17T07:13:41.946Z,83.30
2018-10-17T07:16:10.418Z,66.53
2018-10-17T07:18:39.856Z,70.23
2018-10-17T07:21:08.304Z,75.93
2018-10-17T07:23:36.718Z,66.63
2018-10-17T07:26:05.240Z,72.90
2018-10-17T07:28:33.832Z,69.23
2018-10-17T07:31:02.318Z,78.50
2018-10-17T07:33:30.734Z,72.97
2018-10-17T07:35:59.193Z,107.30
2018-10-17T07:38:27.668Z,103.43
2018-10-17T07:40:56.136Z,86.77
2018-10-17T07:43:24.561Z,89.53
2018-10-17T07:45:53.016Z,67.57
2018-10-17T07:48:21.460Z,71.87
2018-10-17T07:50:49.883Z,61.03
2018-10-17T07:53:18.326Z,67.93
2018-10-17T07:55:46.787Z,61.27
2018-10-17T07:58:15.219Z,66.90
2018-10-17T08:00:43.776Z,62.90
2018-10-17T08:03:12.227Z,56.67
2018-10-17T08:05:40.673Z,61.43
2018-10-17T08:08:09.174Z,52.90
2018-10-17T08:10:37.632Z,50.83
2018-10-17T08:13:06.402Z,57.70
2018-10-17T08:15:34.834Z,47.30
2018-10-17T08:18:03.284Z,57.53
2018-10-17T08:20:31.718Z,49.60
2018-10-17T08:23:00.162Z,44.63
2018-10-17T08:25:28.584Z,40.93
2018-10-17T08:27:57.028Z,42.13
2018-10-17T08:30:25.481Z,41.63
2018-10-17T08:32:53.929Z,42.70
2018-10-17T08:35:22.410Z,43.80
2018-10-17T08:37:51.152Z,41.63
2018-10-17T08:40:19.257Z,48.33
2018-10-17T08:42:47.664Z,36.27
2018-10-17T08:45:16.154Z,29.40
2018-10-17T08:47:44.579Z,34.50
2018-10-17T08:50:13.073Z,36.00
2018-10-17T08:52:41.519Z,32.17
2018-10-17T08:55:10.003Z,31.67
2018-10-17T08:57:38.470Z,35.83
2018-10-17T09:00:07.798Z,30.60
2018-10-17T09:02:36.255Z,29.00
2018-10-17T09:05:04.768Z,29.83
2018-10-17T09:07:33.299Z,28.20
2018-10-17T09:10:01.680Z,23.97
2018-10-17T09:12:30.133Z,27.93
2018-10-17T09:14:58.604Z,25.77
2018-10-17T09:17:27.074Z,22.03
2018-10-17T09:19:55.766Z,24.57
2018-10-17T09:22:24.230Z,25.53
2018-10-17T09:24:52.396Z,29.83
2018-10-17T09:27:20.831Z,31.03
2018-10-17T09:29:49.262Z,34.00
2018-10-17T09:32:17.714Z,30.37
2018-10-17T09:34:46.217Z,23.67
2018-10-17T09:37:14.678Z,31.77
2018-10-17T09:39:43.155Z,24.47
2018-10-17T09:42:11.686Z,24.13
2018-10-17T09:44:40.120Z,28.13
2018-10-17T09:47:08.595Z,30.77
2018-10-17T09:49:36.997Z,26.37
2018-10-17T09:52:06.000Z,22.67
2018-10-17T09:54:34.312Z,24.10
2018-10-17T09:57:02.751Z,27.50
2018-10-17T09:59:31.203Z,25.23
2018-10-17T10:01:59.685Z,20.67
2018-10-17T10:04:28.124Z,23.67
2018-10-17T10:06:56.602Z,25.17
2018-10-17T10:09:25.029Z,23.80
2018-10-17T10:11:53.477Z,27.27
2018-10-17T10:14:21.973Z,28.47
2018-10-17T10:16:50.457Z,28.30
2018-10-17T10:19:18.883Z,24.37
2018-10-17T10:21:47.503Z,24.40
2018-10-17T10:24:16.120Z,21.57
2018-10-17T10:26:44.505Z,18.37
2018-10-17T10:29:12.940Z,16.60
2018-10-17T10:31:41.360Z,17.50
2018-10-17T10:34:09.808Z,20.57
2018-10-17T10:36:38.243Z,16.17
2018-10-17T10:39:09.729Z,13.37
2018-10-17T10:41:38.191Z,16.20
2018-10-17T10:44:07.261Z,21.23
2018-10-17T10:46:35.770Z,19.63
2018-10-17T10:49:04.517Z,20.43
2018-10-17T10:51:32.995Z,18.30
2018-10-17T10:54:01.502Z,19.67
2018-10-17T10:56:29.956Z,19.10
2018-10-17T10:58:58.465Z,15.80
2018-10-17T11:01:26.881Z,13.00
2018-10-17T11:03:55.312Z,13.73
2018-10-17T11:06:23.743Z,13.80
2018-10-17T11:08:52.180Z,13.87
2018-10-17T11:11:20.652Z,17.07
2018-10-17T11:13:49.113Z,13.70
2018-10-17T11:16:17.561Z,13.97
2018-10-17T11:18:46.002Z,15.00
2018-10-17T11:21:14.538Z,13.80
2018-10-17T11:23:42.951Z,12.50
2018-10-17T11:26:11.422Z,15.83
2018-10-17T11:28:39.941Z,12.97
2018-10-17T11:31:08.507Z,15.30
2018-10-17T11:33:37.079Z,13.63
2018-10-17T11:36:05.542Z,18.20
2018-10-17T11:38:34.007Z,13.13
2018-10-17T11:41:02.495Z,13.43
2018-10-17T11:43:30.915Z,13.23
2018-10-17T11:45:59.396Z,12.80
2018-10-17T11:48:27.876Z,14.50
2018-10-17T11:50:56.381Z,14.57
2018-10-17T11:53:24.848Z,16.87
2018-10-17T11:55:53.410Z,17.23
2018-10-17T11:58:21.852Z,15.93
2018-10-17T12:00:50.318Z,17.50
2018-10-17T12:03:18.765Z,18.97
2018-10-17T12:05:47.308Z,17.87
2018-10-17T12:08:15.641Z,15.80
2018-10-17T12:10:44.130Z,15.47
2018-10-17T12:13:12.612Z,17.53
2018-10-17T12:15:43.725Z,18.03
2018-10-17T12:18:12.648Z,18.20
2018-10-17T12:20:41.139Z,20.17
2018-10-17T12:23:09.617Z,19.67
2018-10-17T12:25:38.081Z,20.17
2018-10-17T12:28:06.712Z,14.73
2018-10-17T12:30:35.123Z,15.63
2018-10-17T12:33:03.629Z,13.63
2018-10-17T12:35:32.086Z,15.97
2018-10-17T12:38:00.553Z,17.97
2018-10-17T12:40:29.122Z,14.40
2018-10-17T12:42:57.512Z,12.73
2018-10-17T12:45:25.967Z,13.77
2018-10-17T12:47:54.413Z,14.90
2018-10-17T12:50:23.243Z,14.87
2018-10-17T12:52:51.682Z,15.83
2018-10-17T12:55:20.085Z,14.23
2018-10-17T12:57:48.529Z,14.80
2018-10-17T13:00:16.978Z,19.33
2018-10-17T13:02:45.403Z,14.40
2018-10-17T13:05:13.925Z,16.50
2018-10-17T13:07:42.350Z,16.27
2018-10-17T13:10:11.702Z,18.03
2018-10-17T13:12:40.608Z,16.97
2018-10-17T13:15:10.237Z,16.60
2018-10-17T13:17:38.578Z,21.67
2018-10-17T13:20:07.107Z,16.20
2018-10-17T13:22:35.569Z,16.37
2018-10-17T13:25:04.141Z,17.50
2018-10-17T13:27:32.564Z,15.57
2018-10-17T13:30:01.103Z,13.80
2018-10-17T13:32:29.550Z,16.20
2018-10-17T13:34:58.032Z,17.40
2018-10-17T13:37:26.476Z,13.80
2018-10-17T13:39:54.931Z,12.03
2018-10-17T13:42:23.437Z,15.13
2018-10-17T13:44:51.888Z,13.50
2018-10-17T13:47:20.400Z,15.03
2018-10-17T13:49:48.820Z,11.63
2018-10-17T13:52:17.235Z,14.50
2018-10-17T13:54:45.783Z,13.30
2018-10-17T13:57:14.167Z,11.67
2018-10-17T13:59:42.694Z,11.70
2018-10-17T14:02:11.147Z,11.33
2018-10-17T14:04:39.613Z,10.40
2018-10-17T14:07:08.237Z,7.50
2018-10-17T14:09:36.717Z,8.70
2018-10-17T14:12:05.851Z,9.10
2018-10-17T14:14:34.316Z,11.65
2018-10-17T14:17:02.777Z,8.73
2018-10-17T14:19:31.195Z,8.38
2018-10-17T14:21:59.655Z,9.53
2018-10-17T14:24:29.053Z,7.97
2018-10-17T14:26:57.596Z,8.90
2018-10-17T14:29:26.055Z,9.03
2018-10-17T14:31:54.597Z,12.43
2018-10-17T14:34:23.050Z,8.17
2018-10-17T14:36:51.498Z,8.53
2018-10-17T14:39:20.056Z,11.37
2018-10-17T14:41:48.438Z,14.37
2018-10-17T14:44:16.834Z,9.80
2018-10-17T14:46:45.324Z,7.67
2018-10-17T14:49:13.748Z,8.57
2018-10-17T14:51:42.238Z,9.83
2018-10-17T14:54:12.076Z,7.90
2018-10-17T14:56:40.730Z,7.80
2018-10-17T14:59:09.346Z,12.43
2018-10-17T15:01:37.733Z,9.27
2018-10-17T15:04:06.239Z,9.10
2018-10-17T15:06:34.710Z,9.27
2018-10-17T15:09:04.312Z,10.00
2018-10-17T15:11:32.834Z,9.57
2018-10-17T15:14:01.246Z,11.83
2018-10-17T15:16:29.776Z,16.53
2018-10-17T15:18:58.306Z,10.73
2018-10-17T15:21:26.761Z,7.90
2018-10-17T15:23:55.219Z,7.97
2018-10-17T15:26:23.682Z,9.13
2018-10-17T15:28:52.134Z,11.20
2018-10-17T15:31:20.700Z,10.63
2018-10-17T15:33:49.090Z,12.37
2018-10-17T15:36:17.621Z,10.43
2018-10-17T15:38:46.015Z,11.63
2018-10-17T15:41:14.462Z,11.07
2018-10-17T15:43:43.067Z,11.53
2018-10-17T15:46:11.576Z,14.57
2018-10-17T15:48:40.061Z,11.77
2018-10-17T15:51:08.547Z,9.83
2018-10-17T15:53:37.035Z,13.80
2018-10-17T15:56:05.539Z,11.93
2018-10-17T15:58:34.043Z,10.77
2018-10-17T16:01:02.647Z,12.80
2018-10-17T16:03:31.061Z,13.37
2018-10-17T16:05:59.634Z,13.93
2018-10-17T16:08:28.074Z,13.90
2018-10-17T16:10:56.866Z,15.13
2018-10-17T16:13:25.449Z,16.47
2018-10-17T16:15:53.922Z,16.30
2018-10-17T16:18:22.427Z,14.23
2018-10-17T16:20:50.893Z,20.53
2018-10-17T16:23:19.449Z,25.23
2018-10-17T16:25:47.888Z,20.93
2018-10-17T16:28:16.445Z,15.67
2018-10-17T16:30:44.937Z,15.60
2018-10-17T16:33:13.414Z,20.63
2018-10-17T16:35:42.015Z,20.00
2018-10-17T16:38:10.545Z,16.97
2018-10-17T16:40:38.956Z,19.70
2018-10-17T16:43:07.444Z,16.70
2018-10-17T16:45:35.920Z,18.90
2018-10-17T16:48:04.628Z,18.47
2018-10-17T16:50:33.193Z,26.63
2018-10-17T16:53:01.530Z,21.30
2018-10-17T16:55:30.921Z,21.13
2018-10-17T16:57:59.487Z,21.17
2018-10-17T17:00:27.969Z,18.50
2018-10-17T17:02:56.465Z,19.00
2018-10-17T17:05:24.914Z,18.10
2018-10-17T17:07:53.397Z,20.00
2018-10-17T17:10:21.860Z,23.07
2018-10-17T17:12:50.315Z,17.63
2018-10-17T17:15:18.827Z,19.10
2018-10-17T17:17:47.211Z,16.77
2018-10-17T17:20:15.661Z,19.40
2018-10-17T17:22:44.173Z,24.03
2018-10-17T17:25:12.619Z,18.53
2018-10-17T17:27:41.133Z,19.07
2018-10-17T17:30:14.970Z,23.40
2018-10-17T17:32:43.419Z,19.57
2018-10-17T17:35:11.855Z,21.77
2018-10-17T17:37:40.336Z,27.67
2018-10-17T17:40:10.110Z,19.23
2018-10-17T17:42:38.628Z,21.67
2018-10-17T17:45:07.624Z,20.17
2018-10-17T17:47:36.101Z,16.00
2018-10-17T17:50:04.726Z,16.80
2018-10-17T17:52:33.153Z,19.37
2018-10-17T17:55:01.665Z,17.77
2018-10-17T17:57:30.141Z,20.60
2018-10-17T17:59:58.814Z,18.77
2018-10-17T18:02:27.286Z,17.10
2018-10-17T18:04:55.737Z,20.30
2018-10-17T18:07:24.212Z,18.40
2018-10-17T18:09:52.691Z,21.50
2018-10-17T18:12:21.185Z,21.03
2018-10-17T18:14:49.705Z,25.90
2018-10-17T18:17:18.245Z,19.70
2018-10-17T18:19:47.648Z,19.90
2018-10-17T18:22:16.193Z,26.33
2018-10-17T18:24:44.646Z,24.50
2018-10-17T18:27:13.151Z,25.40
2018-10-17T18:29:41.656Z,22.00
2018-10-17T18:32:10.145Z,22.30
2018-10-17T18:34:38.606Z,27.87
2018-10-17T18:37:07.334Z,24.33
2018-10-17T18:39:35.812Z,24.60
2018-10-17T18:42:04.623Z,26.87
2018-10-17T18:44:33.108Z,23.23
2018-10-17T18:47:01.661Z,26.80
2018-10-17T18:49:30.133Z,27.27
2018-10-17T18:51:58.638Z,23.10
2018-10-17T18:54:27.141Z,26.43
2018-10-17T18:56:55.662Z,25.47
2018-10-17T18:59:24.135Z,27.10
2018-10-17T19:01:52.587Z,27.07
2018-10-17T19:04:21.056Z,27.60
2018-10-17T19:06:49.509Z,27.93
2018-10-17T19:09:17.991Z,28.50
2018-10-17T19:11:47.010Z,27.67
2018-10-17T19:14:15.459Z,28.03
2018-10-17T19:16:43.955Z,23.70
2018-10-17T19:19:12.439Z,31.50
2018-10-17T19:21:40.964Z,28.00
2018-10-17T19:24:09.457Z,29.17
2018-10-17T19:26:37.938Z,27.20
2018-10-17T19:29:06.503Z,27.67
2018-10-17T19:31:34.953Z,29.47
2018-10-17T19:34:03.422Z,34.70
2018-10-17T19:36:31.886Z,27.23
2018-10-17T19:39:00.391Z,29.43
2018-10-17T19:41:28.796Z,27.10
2018-10-17T19:43:57.243Z,29.10
2018-10-17T19:46:25.701Z,29.80
2018-10-17T19:48:54.134Z,29.00
2018-10-17T19:51:22.594Z,27.97
2018-10-17T19:53:51.005Z,30.77
2018-10-17T19:56:19.448Z,30.47
2018-10-17T19:58:47.903Z,31.27
2018-10-17T20:01:16.356Z,31.90
2018-10-17T20:03:44.867Z,28.00
2018-10-17T20:06:13.331Z,31.70
2018-10-17T20:08:41.759Z,32.23
2018-10-17T20:11:10.222Z,27.97
2018-10-17T20:13:38.652Z,34.63
2018-10-17T20:16:07.116Z,34.07
2018-10-17T20:18:35.558Z,26.53
2018-10-17T20:21:04.033Z,29.73
2018-10-17T20:23:32.481Z,31.57
2018-10-17T20:26:00.912Z,34.93
2018-10-17T20:28:29.370Z,36.10
2018-10-17T20:30:57.962Z,28.27
2018-10-17T20:33:26.407Z,37.80
2018-10-17T20:35:54.866Z,32.10
2018-10-17T20:38:23.389Z,33.77
2018-10-17T20:40:52.145Z,38.07
2018-10-17T20:43:20.688Z,32.07
2018-10-17T20:45:49.204Z,38.50
2018-10-17T20:48:17.695Z,37.83
2018-10-17T20:50:46.291Z,33.40
2018-10-17T20:53:14.803Z,29.97
2018-10-17T20:55:43.418Z,35.83
2018-10-17T20:58:11.984Z,30.97
2018-10-17T21:00:40.539Z,35.00
2018-10-17T21:03:09.081Z,34.27
2018-10-17T21:05:37.654Z,41.23
2018-10-17T21:08:06.211Z,35.57
2018-10-17T21:10:34.659Z,33.73
2018-10-17T21:13:03.105Z,33.30
2018-10-17T21:15:31.567Z,37.50
2018-10-17T21:18:00.024Z,36.27
2018-10-17T21:20:28.494Z,38.23
2018-10-17T21:22:56.929Z,41.87
2018-10-17T21:25:25.359Z,42.57
2018-10-17T21:27:53.799Z,47.30
2018-10-17T21:30:22.251Z,51.83
2018-10-17T21:32:50.737Z,42.13
2018-10-17T21:35:19.157Z,44.17
2018-10-17T21:37:47.637Z,44.77
2018-10-17T21:40:16.097Z,39.07
2018-10-17T21:42:44.542Z,35.10
2018-10-17T21:45:12.990Z,35.70
2018-10-17T21:47:41.488Z,34.17
2018-10-17T21:50:09.998Z,37.53
2018-10-17T21:52:38.368Z,38.20
2018-10-17T21:55:06.830Z,39.70
2018-10-17T21:57:35.305Z,40.13
2018-10-17T22:00:05.283Z,34.73
2018-10-17T22:02:33.758Z,32.10
2018-10-17T22:05:02.214Z,31.50
2018-10-17T22:07:30.690Z,40.87
2018-10-17T22:09:59.176Z,34.10
2018-10-17T22:12:27.643Z,37.67
2018-10-17T22:14:56.078Z,39.57
2018-10-17T22:17:30.259Z,32.63
2018-10-17T22:19:59.323Z,31.80
2018-10-17T22:22:27.870Z,36.60
2018-10-17T22:24:56.892Z,36.10
2018-10-17T22:27:25.322Z,35.23
2018-10-17T22:29:54.114Z,38.37
2018-10-17T22:32:22.606Z,39.80
2018-10-17T22:34:51.043Z,38.73
2018-10-17T22:37:19.513Z,37.27
2018-10-17T22:39:47.954Z,43.03
2018-10-17T22:42:16.423Z,37.27
2018-10-17T22:44:44.867Z,37.23
2018-10-17T22:47:13.493Z,36.57
2018-10-17T22:49:41.968Z,35.93
2018-10-17T22:52:10.410Z,37.67
2018-10-17T22:54:38.841Z,38.13
2018-10-17T22:57:07.275Z,40.03
2018-10-17T22:59:35.709Z,38.17
2018-10-17T23:02:04.303Z,45.30
2018-10-17T23:04:32.744Z,47.67
2018-10-17T23:07:01.236Z,46.27
2018-10-17T23:09:29.718Z,39.67
2018-10-17T23:11:58.264Z,38.27
2018-10-17T23:14:27.017Z,38.23
2018-10-17T23:16:55.483Z,37.27
2018-10-17T23:19:23.932Z,38.53
2018-10-17T23:21:52.403Z,41.03
2018-10-17T23:24:20.836Z,42.40
2018-10-17T23:26:49.343Z,37.73
2018-10-17T23:29:17.775Z,41.73
2018-10-17T23:31:46.205Z,42.03
2018-10-17T23:34:14.753Z,40.20
2018-10-17T23:36:43.207Z,39.10
2018-10-17T23:39:11.664Z,42.43
2018-10-17T23:41:40.708Z,40.43
2018-10-17T23:44:09.307Z,45.60
2018-10-17T23:46:37.684Z,43.80
2018-10-17T23:49:06.184Z,36.97
2018-10-17T23:51:34.624Z,38.10
2018-10-17T23:54:03.120Z,44.13
2018-10-17T23:56:31.608Z,41.17
2018-10-17T23:59:00.114Z,44.40
